createdAt,value
2023-02-26T00:01:57.174Z,88.5
2023-02-26T00:04:23.241Z,88.4
2023-02-26T00:06:49.364Z,88.9
2023-02-26T00:09:15.314Z,89.4
2023-02-26T00:11:41.399Z,89.8
2023-02-26T00:14:07.510Z,90.8
2023-02-26T00:16:32.706Z,91.5
2023-02-26T00:18:58.777Z,92.1
2023-02-26T00:21:24.980Z,93.1
2023-02-26T00:23:50.963Z,93.8
2023-02-26T00:26:17.069Z,93.4
2023-02-26T00:28:43.128Z,94.1
2023-02-26T00:31:09.277Z,94.8
2023-02-26T00:33:35.424Z,95
2023-02-26T00:36:01.549Z,95.8
2023-02-26T00:38:27.589Z,96.1
2023-02-26T00:40:53.701Z,96.2
2023-02-26T00:43:19.850Z,96.4
2023-02-26T00:45:45.810Z,96.7
2023-02-26T00:48:10.952Z,97
2023-02-26T00:50:37.190Z,97.1
2023-02-26T00:53:03.304Z,97.3
2023-02-26T00:55:29.294Z,97.8
2023-02-26T00:57:55.438Z,97.4
2023-02-26T01:00:21.579Z,97.3
2023-02-26T01:02:47.676Z,97.4
2023-02-26T01:05:13.585Z,97.5
2023-02-26T01:07:39.843Z,97.7
2023-02-26T01:10:05.904Z,97.4
2023-02-26T01:12:31.878Z,97.5
2023-02-26T01:14:58.176Z,97.4
2023-02-26T01:17:24.067Z,97.8
2023-02-26T01:19:49.304Z,97.9
2023-02-26T01:22:15.437Z,97.7
2023-02-26T01:24:41.512Z,97.6
2023-02-26T01:27:07.651Z,97.7
2023-02-26T01:29:33.768Z,97.8
2023-02-26T01:31:59.732Z,97.7
2023-02-26T01:34:25.939Z,97.8
2023-02-26T01:36:51.969Z,98.1
2023-02-26T01:39:18.148Z,98.3
2023-02-26T01:41:44.169Z,98.6
2023-02-26T01:44:10.233Z,98.7
2023-02-26T01:46:36.261Z,98.5
2023-02-26T01:49:02.568Z,98.7
2023-02-26T01:51:27.631Z,98.5
2023-02-26T01:53:53.575Z,98.9
2023-02-26T01:56:19.918Z,99
2023-02-26T01:58:45.938Z,99.1
2023-02-26T02:01:11.915Z,99.3
2023-02-26T02:03:37.978Z,99.3
2023-02-26T02:06:04.155Z,99.1
2023-02-26T02:08:30.354Z,99.1
2023-02-26T02:10:56.428Z,98.9
2023-02-26T02:13:22.590Z,99.1
2023-02-26T02:15:48.498Z,98.8
2023-02-26T02:18:14.528Z,98.8
2023-02-26T02:20:40.679Z,98.8
2023-02-26T02:23:05.816Z,99.2
2023-02-26T02:25:31.859Z,99.3
2023-02-26T02:27:58.062Z,99.7
2023-02-26T02:30:24.165Z,100
2023-02-26T02:32:50.276Z,100
2023-02-26T02:35:16.318Z,100
2023-02-26T02:37:42.497Z,100
2023-02-26T02:40:08.614Z,100
2023-02-26T02:42:34.512Z,100
2023-02-26T02:45:00.615Z,100
2023-02-26T02:47:26.852Z,100
2023-02-26T02:49:52.893Z,100
2023-02-26T02:52:19.058Z,100
2023-02-26T02:54:44.055Z,100
2023-02-26T02:57:10.121Z,100
2023-02-26T02:59:36.235Z,100
2023-02-26T03:02:02.532Z,100
2023-02-26T03:04:28.662Z,100
2023-02-26T03:06:54.617Z,100
2023-02-26T03:09:20.795Z,100
2023-02-26T03:11:46.715Z,100
2023-02-26T03:16:38.910Z,100
2023-02-26T03:19:05.059Z,100
2023-02-26T03:21:31.096Z,100
2023-02-26T03:23:57.217Z,100
2023-02-26T03:26:22.328Z,100
2023-02-26T03:28:48.400Z,100
2023-02-26T03:31:14.523Z,100
2023-02-26T03:33:40.596Z,100
2023-02-26T03:36:06.691Z,100
2023-02-26T03:38:32.805Z,100
2023-02-26T03:40:58.896Z,100
2023-02-26T03:43:25.015Z,100
2023-02-26T03:45:51.096Z,100
2023-02-26T03:48:17.193Z,100
2023-02-26T03:50:43.285Z,100
2023-02-26T03:53:09.407Z,100
2023-02-26T03:55:35.479Z,100
2023-02-26T03:58:00.598Z,100
2023-02-26T04:00:26.683Z,100
2023-02-26T04:02:52.782Z,100
2023-02-26T04:05:18.891Z,100
2023-02-26T04:07:44.984Z,100
2023-02-26T04:10:11.077Z,100
2023-02-26T04:12:37.175Z,100
2023-02-26T04:15:03.319Z,100
2023-02-26T04:17:29.368Z,100
2023-02-26T04:19:55.471Z,99.9
2023-02-26T04:22:21.578Z,100
2023-02-26T04:24:47.683Z,100
2023-02-26T04:27:13.753Z,100
2023-02-26T04:29:38.868Z,100
2023-02-26T04:32:04.997Z,100
2023-02-26T04:34:31.061Z,100
2023-02-26T04:36:57.173Z,100
2023-02-26T04:39:23.301Z,100
2023-02-26T04:41:49.353Z,100
2023-02-26T04:44:15.446Z,100
2023-02-26T04:46:41.559Z,100
2023-02-26T04:49:07.643Z,100
2023-02-26T04:51:33.753Z,100
2023-02-26T04:53:59.830Z,100
2023-02-26T04:56:26.152Z,100
2023-02-26T04:58:52.034Z,100
2023-02-26T05:01:17.155Z,100
2023-02-26T05:03:43.252Z,100
2023-02-26T05:06:09.329Z,100
2023-02-26T05:08:35.448Z,100
2023-02-26T05:11:01.558Z,100
2023-02-26T05:13:27.625Z,100
2023-02-26T05:15:53.737Z,100
2023-02-26T05:18:19.818Z,100
2023-02-26T05:20:45.929Z,100
2023-02-26T05:23:12.037Z,100
2023-02-26T05:25:38.130Z,100
2023-02-26T05:28:04.217Z,100
2023-02-26T05:30:30.317Z,100
2023-02-26T05:32:55.464Z,100
2023-02-26T05:35:21.527Z,100
2023-02-26T05:37:47.626Z,100
2023-02-26T05:40:13.725Z,100
2023-02-26T05:42:39.815Z,100
2023-02-26T05:45:05.976Z,100
2023-02-26T05:47:32.015Z,100
2023-02-26T05:49:58.116Z,100
2023-02-26T05:52:24.204Z,100
2023-02-26T05:54:50.304Z,100
2023-02-26T05:57:16.409Z,100
2023-02-26T05:59:42.490Z,100
2023-02-26T06:02:08.603Z,100
2023-02-26T06:04:33.694Z,100
2023-02-26T06:06:59.805Z,100
2023-02-26T06:09:25.903Z,100
2023-02-26T06:11:51.997Z,100
2023-02-26T06:14:17.128Z,100
2023-02-26T06:16:43.223Z,100
2023-02-26T06:19:09.314Z,100
2023-02-26T06:21:35.450Z,100
2023-02-26T06:24:01.519Z,100
2023-02-26T06:26:27.596Z,100
2023-02-26T06:28:53.701Z,100
2023-02-26T06:31:19.809Z,100
2023-02-26T06:33:45.893Z,100
2023-02-26T06:36:12.075Z,100
2023-02-26T06:38:38.097Z,100
2023-02-26T06:41:04.208Z,100
2023-02-26T06:43:30.293Z,100
2023-02-26T06:45:55.468Z,100
2023-02-26T06:48:21.503Z,100
2023-02-26T06:50:47.607Z,100
2023-02-26T06:53:13.706Z,100
2023-02-26T06:55:39.814Z,100
2023-02-26T06:58:05.889Z,100
2023-02-26T07:00:32.002Z,100
2023-02-26T07:02:58.093Z,100
2023-02-26T07:05:24.184Z,100
2023-02-26T07:07:50.298Z,100
2023-02-26T07:10:16.385Z,100
2023-02-26T07:12:42.471Z,99.6
2023-02-26T07:15:08.577Z,99.4
2023-02-26T07:17:33.729Z,99.1
2023-02-26T07:19:59.783Z,99
2023-02-26T07:22:25.871Z,99.2
2023-02-26T07:24:51.973Z,99.4
2023-02-26T07:27:18.067Z,99.2
2023-02-26T07:29:44.164Z,99
2023-02-26T07:32:10.265Z,98.3
2023-02-26T07:34:36.358Z,98.2
2023-02-26T07:37:02.458Z,98.2
2023-02-26T07:39:28.548Z,98
2023-02-26T07:41:54.647Z,97.7
2023-02-26T07:44:20.748Z,97.2
2023-02-26T07:46:46.856Z,95.7
2023-02-26T07:49:13.002Z,94.7
2023-02-26T07:51:39.055Z,94.7
2023-02-26T07:54:05.135Z,94.4
2023-02-26T07:56:31.258Z,93.9
2023-02-26T07:58:57.330Z,93.7
2023-02-26T08:01:23.443Z,93.5
2023-02-26T08:03:49.526Z,93.2
2023-02-26T08:06:14.645Z,92.3
2023-02-26T08:08:40.731Z,91.7
2023-02-26T08:11:06.824Z,90.9
2023-02-26T08:13:32.915Z,91.1
2023-02-26T08:15:59.016Z,90.9
2023-02-26T08:18:25.114Z,90.9
2023-02-26T08:20:51.221Z,90.7
2023-02-26T08:23:17.318Z,90.4
2023-02-26T08:25:43.418Z,90.3
2023-02-26T08:28:09.522Z,90
2023-02-26T08:30:35.615Z,90.5
2023-02-26T08:33:01.697Z,89.7
2023-02-26T08:35:27.810Z,88.9
2023-02-26T08:37:52.909Z,88.8
2023-02-26T08:40:19.012Z,89.2
2023-02-26T08:42:45.189Z,87
2023-02-26T08:45:11.211Z,87.6
2023-02-26T08:47:37.315Z,87.1
2023-02-26T08:50:03.394Z,86.7
2023-02-26T08:52:29.494Z,87.5
2023-02-26T08:54:55.602Z,87.9
2023-02-26T08:57:21.733Z,86.6
2023-02-26T08:59:47.813Z,87.2
2023-02-26T09:02:13.901Z,87.2
2023-02-26T09:04:40.016Z,86.6
2023-02-26T09:07:06.085Z,86
2023-02-26T09:09:31.203Z,86.1
2023-02-26T09:11:57.289Z,85.5
2023-02-26T09:14:23.378Z,84.7
2023-02-26T09:16:49.479Z,84.5
2023-02-26T09:19:15.591Z,84.8
2023-02-26T09:21:41.684Z,85
2023-02-26T09:24:07.789Z,83.4
2023-02-26T09:26:33.906Z,82.6
2023-02-26T09:31:26.071Z,82.9
2023-02-26T09:33:52.164Z,82.7
2023-02-26T09:36:18.263Z,82.7
2023-02-26T09:38:44.354Z,83.2
2023-02-26T09:41:09.484Z,83
2023-02-26T09:43:35.583Z,82.8
2023-02-26T09:46:01.669Z,82.7
2023-02-26T09:48:27.808Z,82.7
2023-02-26T09:50:53.859Z,83.4
2023-02-26T09:53:19.966Z,82.3
2023-02-26T09:55:46.070Z,82.5
2023-02-26T09:58:12.166Z,82.2
2023-02-26T10:00:38.258Z,82.4
2023-02-26T10:03:04.350Z,82.3
2023-02-26T10:05:30.455Z,83
2023-02-26T10:07:56.540Z,82.6
2023-02-26T10:10:22.654Z,82.9
2023-02-26T10:12:48.770Z,83.2
2023-02-26T10:15:13.857Z,83.1
2023-02-26T10:17:39.949Z,82.2
2023-02-26T10:20:06.192Z,82.4
2023-02-26T10:22:32.186Z,81.8
2023-02-26T10:24:58.288Z,82.6
2023-02-26T10:27:24.357Z,83.1
2023-02-26T10:29:50.547Z,82.7
2023-02-26T10:32:16.531Z,82.7
2023-02-26T10:34:42.647Z,82
2023-02-26T10:37:08.731Z,81.5
2023-02-26T10:39:34.832Z,81.7
2023-02-26T10:42:00.941Z,81
2023-02-26T10:44:27.022Z,80.6
2023-02-26T10:46:52.142Z,81.3
2023-02-26T10:49:18.231Z,81.2
2023-02-26T10:51:44.337Z,81.1
2023-02-26T10:54:10.429Z,81.3
2023-02-26T10:56:36.526Z,79.5
2023-02-26T10:59:02.620Z,79.4
2023-02-26T11:01:28.727Z,78.9
2023-02-26T11:03:54.828Z,78.7
2023-02-26T11:06:20.909Z,78.9
2023-02-26T11:08:47.019Z,79.3
2023-02-26T11:11:13.117Z,79.3
2023-02-26T11:13:39.208Z,78.4
2023-02-26T11:16:05.309Z,79.1
2023-02-26T11:18:30.445Z,78
2023-02-26T11:20:56.503Z,78.7
2023-02-26T11:23:22.608Z,77.6
2023-02-26T11:28:14.798Z,78.1
2023-02-26T11:30:41.083Z,79.3
2023-02-26T11:33:07.001Z,78.8
2023-02-26T11:35:33.114Z,79.1
2023-02-26T11:37:59.242Z,78.1
2023-02-26T11:40:25.274Z,77.6
2023-02-26T11:42:51.383Z,78.6
2023-02-26T11:45:17.480Z,78.7
2023-02-26T11:47:43.575Z,78.5
2023-02-26T11:50:08.688Z,77.3
2023-02-26T11:52:34.771Z,77.8
2023-02-26T11:55:00.918Z,76.8
2023-02-26T11:57:26.981Z,76.9
2023-02-26T11:59:53.386Z,77
2023-02-26T12:02:19.164Z,77.2
2023-02-26T12:04:45.298Z,74.5
2023-02-26T12:07:11.358Z,74.8
2023-02-26T12:09:37.450Z,73.5
2023-02-26T12:12:03.557Z,74.6
2023-02-26T12:14:29.666Z,75.6
2023-02-26T12:16:55.737Z,75.3
2023-02-26T12:19:21.897Z,75.4
2023-02-26T12:21:46.930Z,75.2
2023-02-26T12:24:13.024Z,75.4
2023-02-26T12:26:39.129Z,75.8
2023-02-26T12:29:05.224Z,75.8
2023-02-26T12:31:31.367Z,75.2
2023-02-26T12:33:57.432Z,75.7
2023-02-26T12:36:23.518Z,75.5
2023-02-26T12:38:49.620Z,75.6
2023-02-26T12:41:15.724Z,75.6
2023-02-26T12:43:41.822Z,75.3
2023-02-26T12:46:07.972Z,75.7
2023-02-26T12:48:33.998Z,75.2
2023-02-26T12:51:00.167Z,75.1
2023-02-26T12:53:25.209Z,74.2
2023-02-26T12:55:51.354Z,74.3
2023-02-26T12:58:17.405Z,74.5
2023-02-26T13:00:43.493Z,75.2
2023-02-26T13:03:09.596Z,73.9
2023-02-26T13:05:35.704Z,73.8
2023-02-26T13:08:01.796Z,74.1
2023-02-26T13:10:27.881Z,74.3
2023-02-26T13:12:53.983Z,72.7
2023-02-26T13:15:20.076Z,72.5
2023-02-26T13:17:46.161Z,73.8
2023-02-26T13:20:12.270Z,72.3
2023-02-26T13:22:38.365Z,70.4
2023-02-26T13:25:04.456Z,69.9
2023-02-26T13:27:30.564Z,69.6
2023-02-26T13:29:56.643Z,70
2023-02-26T13:32:22.744Z,69
2023-02-26T13:34:47.888Z,68.5
2023-02-26T13:37:13.955Z,67.3
2023-02-26T13:39:40.046Z,67.1
2023-02-26T13:42:06.164Z,66.5
2023-02-26T13:44:32.234Z,67.8
2023-02-26T13:46:58.332Z,68.8
2023-02-26T13:49:24.455Z,68.4
2023-02-26T13:51:50.512Z,68.9
2023-02-26T13:54:16.615Z,69.1
2023-02-26T13:56:42.718Z,69.3
2023-02-26T13:59:08.838Z,67.7
2023-02-26T14:01:34.918Z,67.7
2023-02-26T14:04:00.996Z,66.7
2023-02-26T14:06:27.108Z,67.5
2023-02-26T14:08:53.206Z,67.6
2023-02-26T14:11:19.294Z,67.8
2023-02-26T14:13:45.421Z,66.9
2023-02-26T14:16:11.480Z,67.5
2023-02-26T14:18:37.570Z,67
2023-02-26T14:21:02.786Z,64.5
2023-02-26T14:23:27.827Z,63
2023-02-26T14:25:53.900Z,63.8
2023-02-26T14:28:19.993Z,64.5
2023-02-26T14:30:46.089Z,64.4
2023-02-26T14:33:12.178Z,66.2
2023-02-26T14:35:38.286Z,65.6
2023-02-26T14:38:04.386Z,65.5
2023-02-26T14:40:30.477Z,65.8
2023-02-26T14:42:56.572Z,65.7
2023-02-26T14:45:22.668Z,66.8
2023-02-26T14:47:48.767Z,65.8
2023-02-26T14:50:14.865Z,65
2023-02-26T14:52:40.960Z,65.8
2023-02-26T14:55:06.064Z,65.9
2023-02-26T14:57:32.162Z,66.1
2023-02-26T14:59:58.271Z,66.5
2023-02-26T15:02:24.339Z,67.6
2023-02-26T15:04:50.461Z,67.3
2023-02-26T15:07:16.547Z,67.4
2023-02-26T15:09:42.639Z,68.1
2023-02-26T15:12:08.736Z,68.1
2023-02-26T15:14:34.835Z,67.5
2023-02-26T15:17:00.952Z,66.7
2023-02-26T15:19:27.045Z,67.1
2023-02-26T15:21:53.152Z,67.7
2023-02-26T15:24:19.232Z,67.5
2023-02-26T15:26:44.333Z,68
2023-02-26T15:29:10.443Z,67.4
2023-02-26T15:31:36.518Z,67
2023-02-26T15:34:02.626Z,67.2
2023-02-26T15:36:28.709Z,67.3
2023-02-26T15:38:54.803Z,67.3
2023-02-26T15:41:20.937Z,67.5
2023-02-26T15:43:47.001Z,67.2
2023-02-26T15:46:13.144Z,67.7
2023-02-26T15:48:39.193Z,67.6
2023-02-26T15:51:05.284Z,67.5
2023-02-26T15:53:31.386Z,68
2023-02-26T15:55:57.496Z,67.3
2023-02-26T15:58:22.588Z,67.3
2023-02-26T16:00:48.699Z,67.4
2023-02-26T16:03:14.773Z,67.4
2023-02-26T16:05:40.893Z,66.1
2023-02-26T16:08:06.975Z,64.6
2023-02-26T16:10:33.084Z,64.3
2023-02-26T16:12:59.166Z,64.7
2023-02-26T16:15:25.254Z,65.4
2023-02-26T16:17:51.369Z,65.2
2023-02-26T16:20:17.457Z,65.5
2023-02-26T16:22:43.552Z,65.8
2023-02-26T16:25:09.672Z,65.4
2023-02-26T16:27:35.745Z,65.6
2023-02-26T16:30:00.873Z,65.8
2023-02-26T16:32:27.011Z,65.8
2023-02-26T16:34:53.213Z,65.5
2023-02-26T16:37:19.210Z,65.8
2023-02-26T16:39:45.269Z,64.8
2023-02-26T16:42:11.495Z,64.7
2023-02-26T16:44:37.597Z,64.7
2023-02-26T16:47:03.630Z,65
2023-02-26T16:49:29.798Z,65.6
2023-02-26T16:51:55.885Z,65
2023-02-26T16:54:21.993Z,65.6
2023-02-26T16:56:48.161Z,65.8
2023-02-26T16:59:14.136Z,66.4
2023-02-26T17:01:39.248Z,66.1
2023-02-26T17:04:05.373Z,67.1
2023-02-26T17:06:31.474Z,66.7
2023-02-26T17:08:57.585Z,66.8
2023-02-26T17:11:23.690Z,67.1
2023-02-26T17:13:49.783Z,67.2
2023-02-26T17:16:15.864Z,66.9
2023-02-26T17:18:41.966Z,66.5
2023-02-26T17:21:07.900Z,66.1
2023-02-26T17:23:34.124Z,66.3
2023-02-26T17:26:00.232Z,66.8
2023-02-26T17:28:26.342Z,66.5
2023-02-26T17:30:52.316Z,65.9
2023-02-26T17:33:17.606Z,66
2023-02-26T17:35:43.487Z,66.2
2023-02-26T17:38:09.768Z,65.2
2023-02-26T17:40:35.880Z,66.2
2023-02-26T17:43:02.021Z,66.6
2023-02-26T17:45:28.005Z,66.6
2023-02-26T17:47:54.103Z,66.6
2023-02-26T17:50:20.220Z,66.5
2023-02-26T17:52:46.356Z,66.3
2023-02-26T17:55:12.464Z,66.7
2023-02-26T17:57:38.581Z,67.4
2023-02-26T18:00:04.715Z,67.3
2023-02-26T18:04:56.703Z,67.2
2023-02-26T18:07:21.858Z,66.5
2023-02-26T18:09:47.889Z,66.7
2023-02-26T18:12:14.155Z,66.7
2023-02-26T18:14:40.232Z,67.6
2023-02-26T18:17:06.344Z,67.7
2023-02-26T18:19:32.389Z,66.9
2023-02-26T18:21:58.529Z,67.2
2023-02-26T18:24:24.624Z,67.7
2023-02-26T18:26:50.638Z,67.3
2023-02-26T18:29:16.875Z,67.7
2023-02-26T18:31:42.913Z,67.7
2023-02-26T18:34:09.009Z,67.3
2023-02-26T18:36:35.158Z,67.5
2023-02-26T18:39:00.089Z,67.8
2023-02-26T18:41:26.319Z,67.9
2023-02-26T18:43:52.366Z,68
2023-02-26T18:46:18.363Z,68.4
2023-02-26T18:48:44.568Z,68.2
2023-02-26T18:51:10.674Z,68.3
2023-02-26T18:53:36.744Z,68.5
2023-02-26T18:56:02.769Z,69
2023-02-26T18:58:28.890Z,69.7
2023-02-26T19:00:55.105Z,69.8
2023-02-26T19:03:21.227Z,69.7
2023-02-26T19:05:47.279Z,69.8
2023-02-26T19:08:13.350Z,70.1
2023-02-26T19:10:38.499Z,70
2023-02-26T19:13:04.447Z,70.3
2023-02-26T19:15:30.724Z,70.3
2023-02-26T19:17:56.800Z,70.7
2023-02-26T19:20:22.818Z,71.3
2023-02-26T19:22:48.840Z,71.1
2023-02-26T19:25:14.933Z,70.9
2023-02-26T19:27:41.035Z,70.7
2023-02-26T19:30:07.299Z,70.7
2023-02-26T19:32:33.301Z,69.9
2023-02-26T19:34:59.324Z,70.7
2023-02-26T19:37:25.634Z,70.1
2023-02-26T19:39:51.629Z,69.9
2023-02-26T19:42:16.803Z,70.3
2023-02-26T19:44:42.844Z,70.1
2023-02-26T19:47:08.962Z,70.2
2023-02-26T19:49:34.920Z,69.8
2023-02-26T19:52:01.217Z,70.2
2023-02-26T19:54:27.322Z,70
2023-02-26T19:56:53.435Z,70.5
2023-02-26T19:59:19.494Z,70.6
2023-02-26T20:01:45.440Z,70.8
2023-02-26T20:04:11.576Z,70.4
2023-02-26T20:06:37.795Z,70.8
2023-02-26T20:09:03.802Z,71.1
2023-02-26T20:11:29.850Z,71.3
2023-02-26T20:13:54.913Z,71.3
2023-02-26T20:16:21.016Z,71.1
2023-02-26T20:18:47.130Z,71.3
2023-02-26T20:21:13.358Z,71.9
2023-02-26T20:23:39.359Z,72.4
2023-02-26T20:26:05.563Z,73
2023-02-26T20:28:31.592Z,72.8
2023-02-26T20:30:57.782Z,73
2023-02-26T20:33:23.846Z,73.3
2023-02-26T20:35:49.937Z,73.5
2023-02-26T20:38:16.074Z,74
2023-02-26T20:40:42.105Z,73.7
2023-02-26T20:43:08.069Z,73.8
2023-02-26T20:45:33.239Z,74.3
2023-02-26T20:47:59.268Z,74.3
2023-02-26T20:50:25.501Z,74.5
2023-02-26T20:52:51.484Z,74.5
2023-02-26T20:55:17.641Z,74.1
2023-02-26T20:57:43.801Z,74.3
2023-02-26T21:00:09.941Z,74.8
2023-02-26T21:02:35.949Z,74.9
2023-02-26T21:05:02.043Z,74.9
2023-02-26T21:07:28.198Z,74.9
2023-02-26T21:09:54.231Z,75.1
2023-02-26T21:12:20.260Z,75.4
2023-02-26T21:14:46.525Z,75.5
2023-02-26T21:17:11.672Z,75.6
2023-02-26T21:19:37.675Z,75.8
2023-02-26T21:22:03.764Z,76
2023-02-26T21:24:29.969Z,76.5
2023-02-26T21:26:56.032Z,76.5
2023-02-26T21:29:21.982Z,76.6
2023-02-26T21:31:48.206Z,76.8
2023-02-26T21:34:14.279Z,77
2023-02-26T21:36:40.333Z,77.1
2023-02-26T21:39:06.410Z,77.5
2023-02-26T21:41:32.559Z,77.5
2023-02-26T21:43:58.598Z,77.7
2023-02-26T21:46:24.780Z,78.2
2023-02-26T21:48:49.731Z,78.4
2023-02-26T21:51:15.966Z,78.2
2023-02-26T21:53:42.146Z,78.3
2023-02-26T21:56:08.182Z,78.4
2023-02-26T21:58:34.142Z,78.5
2023-02-26T22:01:00.279Z,78.1
2023-02-26T22:03:26.384Z,78.4
2023-02-26T22:05:52.419Z,78.5
2023-02-26T22:08:18.691Z,78.6
2023-02-26T22:10:44.784Z,78.8
2023-02-26T22:13:10.737Z,78.8
2023-02-26T22:15:36.964Z,78.7
2023-02-26T22:18:02.989Z,78.7
2023-02-26T22:20:28.196Z,78.7
2023-02-26T22:22:54.305Z,78.5
2023-02-26T22:25:20.386Z,78.4
2023-02-26T22:27:46.473Z,78.3
2023-02-26T22:30:12.542Z,78.2
2023-02-26T22:32:37.718Z,78.1
2023-02-26T22:35:03.763Z,78.3
2023-02-26T22:37:29.898Z,78.4
2023-02-26T22:39:55.812Z,78.7
2023-02-26T22:42:22.152Z,78.8
2023-02-26T22:44:48.316Z,79
2023-02-26T22:47:14.264Z,78.3
2023-02-26T22:49:40.336Z,78
2023-02-26T22:52:06.475Z,77.9
2023-02-26T22:54:32.425Z,77.9
2023-02-26T22:56:58.672Z,77.9
2023-02-26T22:59:24.757Z,77.9
2023-02-26T23:01:50.790Z,77.9
2023-02-26T23:04:15.969Z,78.1
2023-02-26T23:06:42.106Z,78.1
2023-02-26T23:09:08.186Z,78.3
2023-02-26T23:11:34.262Z,78.5
2023-02-26T23:14:00.338Z,78.6
2023-02-26T23:16:26.297Z,78.6
2023-02-26T23:18:52.390Z,78.6
2023-02-26T23:21:18.489Z,78.5
2023-02-26T23:23:44.599Z,78.1
2023-02-26T23:26:10.697Z,78.3
2023-02-26T23:28:36.794Z,78.6
2023-02-26T23:31:02.888Z,79
2023-02-26T23:33:28.959Z,79.1
2023-02-26T23:35:54.085Z,79.2
2023-02-26T23:38:20.182Z,79.3
2023-02-26T23:40:46.280Z,79.4
2023-02-26T23:43:12.381Z,79.3
2023-02-26T23:45:38.466Z,79.3
2023-02-26T23:48:04.582Z,79.4
2023-02-26T23:50:30.671Z,79.7
2023-02-26T23:52:56.775Z,79.2
2023-02-26T23:55:22.871Z,79.7
2023-02-26T23:57:48.974Z,80.1
